sensor_id;sensor_type;location;lat;lon;timestamp;P1;durP1;ratioP1;P2;durP2;ratioP2
35330;SDS011;21441;52.190;20.910;2023-03-12T00:00:06;9.10;;;5.13;;
35330;SDS011;21441;52.190;20.910;2023-03-12T00:02:55;10.05;;;4.57;;
35330;SDS011;21441;52.190;20.910;2023-03-12T00:05:22;10.80;;;5.38;;
35330;SDS011;21441;52.190;20.910;2023-03-12T00:07:52;10.15;;;6.00;;
35330;SDS011;21441;52.190;20.910;2023-03-12T00:10:24;5.80;;;3.70;;
35330;SDS011;21441;52.190;20.910;2023-03-12T00:12:51;14.20;;;6.07;;
35330;SDS011;21441;52.190;20.910;2023-03-12T00:15:18;6.65;;;5.28;;
35330;SDS011;21441;52.190;20.910;2023-03-12T00:17:46;8.60;;;5.05;;
35330;SDS011;21441;52.190;20.910;2023-03-12T00:20:13;9.18;;;5.53;;
35330;SDS011;21441;52.190;20.910;2023-03-12T00:22:41;10.88;;;5.63;;
35330;SDS011;21441;52.190;20.910;2023-03-12T00:25:11;9.68;;;4.47;;
35330;SDS011;21441;52.190;20.910;2023-03-12T00:27:40;8.52;;;5.78;;
35330;SDS011;21441;52.190;20.910;2023-03-12T00:30:08;9.98;;;6.38;;
35330;SDS011;21441;52.190;20.910;2023-03-12T00:32:37;9.37;;;6.33;;
35330;SDS011;21441;52.190;20.910;2023-03-12T00:35:04;13.48;;;6.45;;
35330;SDS011;21441;52.190;20.910;2023-03-12T00:37:32;9.18;;;5.60;;
35330;SDS011;21441;52.190;20.910;2023-03-12T00:39:59;14.40;;;7.75;;
35330;SDS011;21441;52.190;20.910;2023-03-12T00:42:31;8.73;;;6.03;;
35330;SDS011;21441;52.190;20.910;2023-03-12T00:44:58;13.07;;;8.10;;
35330;SDS011;21441;52.190;20.910;2023-03-12T00:47:25;15.05;;;7.18;;
35330;SDS011;21441;52.190;20.910;2023-03-12T00:49:52;12.80;;;6.70;;
35330;SDS011;21441;52.190;20.910;2023-03-12T00:52:20;15.93;;;9.38;;
35330;SDS011;21441;52.190;20.910;2023-03-12T00:54:47;9.95;;;6.60;;
35330;SDS011;21441;52.190;20.910;2023-03-12T00:57:14;12.15;;;8.40;;
35330;SDS011;21441;52.190;20.910;2023-03-12T00:59:42;11.88;;;7.15;;
35330;SDS011;21441;52.190;20.910;2023-03-12T01:02:10;13.18;;;7.60;;
35330;SDS011;21441;52.190;20.910;2023-03-12T01:04:37;8.38;;;6.35;;
35330;SDS011;21441;52.190;20.910;2023-03-12T01:07:04;16.92;;;8.57;;
35330;SDS011;21441;52.190;20.910;2023-03-12T01:09:32;13.90;;;7.55;;
35330;SDS011;21441;52.190;20.910;2023-03-12T01:11:59;14.13;;;9.25;;
35330;SDS011;21441;52.190;20.910;2023-03-12T01:14:26;9.02;;;6.82;;
35330;SDS011;21441;52.190;20.910;2023-03-12T01:16:55;14.65;;;7.28;;
35330;SDS011;21441;52.190;20.910;2023-03-12T01:19:22;13.05;;;7.50;;
35330;SDS011;21441;52.190;20.910;2023-03-12T01:21:49;9.65;;;6.95;;
35330;SDS011;21441;52.190;20.910;2023-03-12T01:24:16;10.32;;;7.72;;
35330;SDS011;21441;52.190;20.910;2023-03-12T01:26:44;14.90;;;7.43;;
35330;SDS011;21441;52.190;20.910;2023-03-12T01:29:11;9.27;;;6.20;;
35330;SDS011;21441;52.190;20.910;2023-03-12T01:31:38;12.85;;;6.72;;
35330;SDS011;21441;52.190;20.910;2023-03-12T01:34:08;8.88;;;6.78;;
35330;SDS011;21441;52.190;20.910;2023-03-12T01:36:37;11.55;;;6.95;;
35330;SDS011;21441;52.190;20.910;2023-03-12T01:39:04;16.17;;;6.95;;
35330;SDS011;21441;52.190;20.910;2023-03-12T01:41:31;12.52;;;6.05;;
35330;SDS011;21441;52.190;20.910;2023-03-12T01:44:00;12.93;;;6.38;;
35330;SDS011;21441;52.190;20.910;2023-03-12T01:46:29;11.57;;;6.78;;
35330;SDS011;21441;52.190;20.910;2023-03-12T01:48:59;6.78;;;4.95;;
35330;SDS011;21441;52.190;20.910;2023-03-12T01:51:32;14.00;;;6.93;;
35330;SDS011;21441;52.190;20.910;2023-03-12T01:54:04;13.27;;;8.63;;
35330;SDS011;21441;52.190;20.910;2023-03-12T01:56:35;11.68;;;7.10;;
35330;SDS011;21441;52.190;20.910;2023-03-12T01:59:05;10.20;;;6.25;;
35330;SDS011;21441;52.190;20.910;2023-03-12T02:01:36;15.57;;;7.70;;
35330;SDS011;21441;52.190;20.910;2023-03-12T02:04:04;15.73;;;9.23;;
35330;SDS011;21441;52.190;20.910;2023-03-12T02:06:35;8.25;;;5.32;;
35330;SDS011;21441;52.190;20.910;2023-03-12T02:09:05;8.93;;;5.70;;
35330;SDS011;21441;52.190;20.910;2023-03-12T02:11:33;12.40;;;7.50;;
35330;SDS011;21441;52.190;20.910;2023-03-12T02:14:00;13.38;;;6.25;;
35330;SDS011;21441;52.190;20.910;2023-03-12T02:16:28;8.80;;;5.05;;
35330;SDS011;21441;52.190;20.910;2023-03-12T02:18:55;7.80;;;5.93;;
35330;SDS011;21441;52.190;20.910;2023-03-12T02:21:27;8.00;;;4.82;;
35330;SDS011;21441;52.190;20.910;2023-03-12T02:24:01;7.78;;;5.93;;
35330;SDS011;21441;52.190;20.910;2023-03-12T02:26:34;11.60;;;5.82;;
35330;SDS011;21441;52.190;20.910;2023-03-12T02:29:02;8.90;;;6.03;;
35330;SDS011;21441;52.190;20.910;2023-03-12T02:31:32;13.07;;;7.00;;
35330;SDS011;21441;52.190;20.910;2023-03-12T02:34:04;8.95;;;5.25;;
35330;SDS011;21441;52.190;20.910;2023-03-12T02:36:31;10.40;;;5.88;;
35330;SDS011;21441;52.190;20.910;2023-03-12T02:38:59;9.52;;;5.78;;
35330;SDS011;21441;52.190;20.910;2023-03-12T02:41:27;6.93;;;5.10;;
35330;SDS011;21441;52.190;20.910;2023-03-12T02:43:59;6.18;;;4.22;;
35330;SDS011;21441;52.190;20.910;2023-03-12T02:46:31;9.75;;;5.57;;
35330;SDS011;21441;52.190;20.910;2023-03-12T02:49:01;7.63;;;4.47;;
35330;SDS011;21441;52.190;20.910;2023-03-12T02:51:29;8.45;;;6.43;;
35330;SDS011;21441;52.190;20.910;2023-03-12T02:53:56;8.98;;;4.72;;
35330;SDS011;21441;52.190;20.910;2023-03-12T02:56:24;6.15;;;4.85;;
35330;SDS011;21441;52.190;20.910;2023-03-12T02:58:53;7.57;;;5.80;;
35330;SDS011;21441;52.190;20.910;2023-03-12T03:01:22;8.85;;;4.25;;
35330;SDS011;21441;52.190;20.910;2023-03-12T03:03:49;5.57;;;4.00;;
35330;SDS011;21441;52.190;20.910;2023-03-12T03:06:16;6.38;;;4.63;;
35330;SDS011;21441;52.190;20.910;2023-03-12T03:08:43;7.43;;;5.38;;
35330;SDS011;21441;52.190;20.910;2023-03-12T03:11:11;10.35;;;5.03;;
35330;SDS011;21441;52.190;20.910;2023-03-12T03:13:38;6.05;;;3.88;;
35330;SDS011;21441;52.190;20.910;2023-03-12T03:16:06;11.40;;;4.65;;
35330;SDS011;21441;52.190;20.910;2023-03-12T03:18:35;9.60;;;4.97;;
35330;SDS011;21441;52.190;20.910;2023-03-12T03:21:03;8.57;;;5.43;;
35330;SDS011;21441;52.190;20.910;2023-03-12T03:23:33;6.95;;;4.45;;
35330;SDS011;21441;52.190;20.910;2023-03-12T03:26:01;7.22;;;4.53;;
35330;SDS011;21441;52.190;20.910;2023-03-12T03:28:29;6.90;;;4.53;;
35330;SDS011;21441;52.190;20.910;2023-03-12T03:30:57;9.73;;;5.30;;
35330;SDS011;21441;52.190;20.910;2023-03-12T03:33:26;9.80;;;4.50;;
35330;SDS011;21441;52.190;20.910;2023-03-12T03:35:55;7.55;;;3.92;;
35330;SDS011;21441;52.190;20.910;2023-03-12T03:38:28;4.68;;;3.40;;
35330;SDS011;21441;52.190;20.910;2023-03-12T03:40:59;10.32;;;3.58;;
35330;SDS011;21441;52.190;20.910;2023-03-12T03:43:26;7.35;;;5.38;;
35330;SDS011;21441;52.190;20.910;2023-03-12T03:45:56;6.72;;;4.35;;
35330;SDS011;21441;52.190;20.910;2023-03-12T03:50:51;9.05;;;5.10;;
35330;SDS011;21441;52.190;20.910;2023-03-12T03:53:19;11.27;;;5.72;;
35330;SDS011;21441;52.190;20.910;2023-03-12T03:55:47;11.13;;;6.03;;
35330;SDS011;21441;52.190;20.910;2023-03-12T03:58:14;7.95;;;5.75;;
35330;SDS011;21441;52.190;20.910;2023-03-12T04:00:42;7.32;;;4.65;;
35330;SDS011;21441;52.190;20.910;2023-03-12T04:03:10;16.50;;;5.30;;
35330;SDS011;21441;52.190;20.910;2023-03-12T04:05:38;10.07;;;5.18;;
35330;SDS011;21441;52.190;20.910;2023-03-12T04:08:09;5.60;;;3.63;;
35330;SDS011;21441;52.190;20.910;2023-03-12T04:10:38;7.57;;;5.53;;
35330;SDS011;21441;52.190;20.910;2023-03-12T04:13:06;9.63;;;5.28;;
35330;SDS011;21441;52.190;20.910;2023-03-12T04:15:33;7.80;;;5.57;;
35330;SDS011;21441;52.190;20.910;2023-03-12T04:18:00;9.80;;;5.50;;
35330;SDS011;21441;52.190;20.910;2023-03-12T04:20:28;7.95;;;5.30;;
35330;SDS011;21441;52.190;20.910;2023-03-12T04:22:55;8.50;;;5.25;;
35330;SDS011;21441;52.190;20.910;2023-03-12T04:25:23;6.55;;;5.00;;
35330;SDS011;21441;52.190;20.910;2023-03-12T04:27:51;8.35;;;5.95;;
35330;SDS011;21441;52.190;20.910;2023-03-12T04:30:18;10.55;;;5.30;;
35330;SDS011;21441;52.190;20.910;2023-03-12T04:32:46;7.95;;;4.85;;
35330;SDS011;21441;52.190;20.910;2023-03-12T04:35:13;5.57;;;3.88;;
35330;SDS011;21441;52.190;20.910;2023-03-12T04:37:40;7.85;;;4.18;;
35330;SDS011;21441;52.190;20.910;2023-03-12T04:40:09;6.07;;;3.72;;
35330;SDS011;21441;52.190;20.910;2023-03-12T04:42:36;5.45;;;3.42;;
35330;SDS011;21441;52.190;20.910;2023-03-12T04:45:06;8.35;;;5.55;;
35330;SDS011;21441;52.190;20.910;2023-03-12T04:50:01;4.20;;;3.50;;
35330;SDS011;21441;52.190;20.910;2023-03-12T04:52:28;4.97;;;4.13;;
35330;SDS011;21441;52.190;20.910;2023-03-12T04:54:55;4.22;;;3.50;;
35330;SDS011;21441;52.190;20.910;2023-03-12T04:57:23;8.15;;;5.60;;
35330;SDS011;21441;52.190;20.910;2023-03-12T04:59:51;6.40;;;4.22;;
35330;SDS011;21441;52.190;20.910;2023-03-12T05:02:20;4.93;;;3.85;;
35330;SDS011;21441;52.190;20.910;2023-03-12T05:04:47;6.80;;;4.43;;
35330;SDS011;21441;52.190;20.910;2023-03-12T05:07:14;16.88;;;4.50;;
35330;SDS011;21441;52.190;20.910;2023-03-12T05:09:41;9.65;;;5.15;;
35330;SDS011;21441;52.190;20.910;2023-03-12T05:12:10;7.45;;;5.45;;
35330;SDS011;21441;52.190;20.910;2023-03-12T05:14:38;7.40;;;3.75;;
35330;SDS011;21441;52.190;20.910;2023-03-12T05:17:05;12.70;;;5.05;;
35330;SDS011;21441;52.190;20.910;2023-03-12T05:19:34;8.88;;;6.03;;
35330;SDS011;21441;52.190;20.910;2023-03-12T05:22:01;7.60;;;5.10;;
35330;SDS011;21441;52.190;20.910;2023-03-12T05:24:28;6.78;;;4.10;;
35330;SDS011;21441;52.190;20.910;2023-03-12T05:26:55;4.85;;;3.60;;
35330;SDS011;21441;52.190;20.910;2023-03-12T05:29:22;5.40;;;3.53;;
35330;SDS011;21441;52.190;20.910;2023-03-12T05:31:50;3.20;;;2.85;;
35330;SDS011;21441;52.190;20.910;2023-03-12T05:34:17;11.05;;;4.80;;
35330;SDS011;21441;52.190;20.910;2023-03-12T05:36:46;5.72;;;4.45;;
35330;SDS011;21441;52.190;20.910;2023-03-12T05:39:13;5.10;;;2.92;;
35330;SDS011;21441;52.190;20.910;2023-03-12T05:41:40;8.35;;;3.92;;
35330;SDS011;21441;52.190;20.910;2023-03-12T05:44:08;5.85;;;3.88;;
35330;SDS011;21441;52.190;20.910;2023-03-12T05:46:36;9.93;;;4.38;;
35330;SDS011;21441;52.190;20.910;2023-03-12T05:49:04;6.13;;;4.47;;
35330;SDS011;21441;52.190;20.910;2023-03-12T05:51:31;6.43;;;3.90;;
35330;SDS011;21441;52.190;20.910;2023-03-12T05:54:00;8.93;;;3.78;;
35330;SDS011;21441;52.190;20.910;2023-03-12T05:56:27;5.60;;;4.53;;
35330;SDS011;21441;52.190;20.910;2023-03-12T05:58:55;6.15;;;3.25;;
35330;SDS011;21441;52.190;20.910;2023-03-12T06:01:22;5.03;;;3.65;;
35330;SDS011;21441;52.190;20.910;2023-03-12T06:06:19;4.28;;;3.50;;
35330;SDS011;21441;52.190;20.910;2023-03-12T06:08:47;5.07;;;3.42;;
35330;SDS011;21441;52.190;20.910;2023-03-12T06:11:15;11.70;;;4.63;;
35330;SDS011;21441;52.190;20.910;2023-03-12T06:13:43;5.32;;;3.75;;
35330;SDS011;21441;52.190;20.910;2023-03-12T06:16:11;6.18;;;4.43;;
35330;SDS011;21441;52.190;20.910;2023-03-12T06:18:43;8.65;;;3.03;;
35330;SDS011;21441;52.190;20.910;2023-03-12T06:21:11;6.13;;;3.75;;
35330;SDS011;21441;52.190;20.910;2023-03-12T06:23:40;7.25;;;3.38;;
35330;SDS011;21441;52.190;20.910;2023-03-12T06:26:09;8.07;;;4.13;;
35330;SDS011;21441;52.190;20.910;2023-03-12T06:28:38;4.22;;;3.30;;
35330;SDS011;21441;52.190;20.910;2023-03-12T06:31:06;3.55;;;2.80;;
35330;SDS011;21441;52.190;20.910;2023-03-12T06:33:34;4.95;;;3.90;;
35330;SDS011;21441;52.190;20.910;2023-03-12T06:36:02;4.90;;;3.28;;
35330;SDS011;21441;52.190;20.910;2023-03-12T06:40:59;6.78;;;4.38;;
35330;SDS011;21441;52.190;20.910;2023-03-12T06:43:28;2.90;;;2.65;;
35330;SDS011;21441;52.190;20.910;2023-03-12T06:45:58;4.90;;;4.13;;
35330;SDS011;21441;52.190;20.910;2023-03-12T06:48:29;6.20;;;3.88;;
35330;SDS011;21441;52.190;20.910;2023-03-12T06:51:01;4.57;;;3.63;;
35330;SDS011;21441;52.190;20.910;2023-03-12T06:53:29;3.80;;;3.20;;
35330;SDS011;21441;52.190;20.910;2023-03-12T06:55:56;6.72;;;3.78;;
35330;SDS011;21441;52.190;20.910;2023-03-12T06:58:24;7.80;;;3.53;;
35330;SDS011;21441;52.190;20.910;2023-03-12T07:00:51;4.80;;;3.75;;
35330;SDS011;21441;52.190;20.910;2023-03-12T07:03:20;5.32;;;3.78;;
35330;SDS011;21441;52.190;20.910;2023-03-12T07:05:48;3.78;;;2.90;;
35330;SDS011;21441;52.190;20.910;2023-03-12T07:08:17;5.00;;;3.17;;
35330;SDS011;21441;52.190;20.910;2023-03-12T07:10:44;6.43;;;3.83;;
35330;SDS011;21441;52.190;20.910;2023-03-12T07:13:12;4.35;;;3.85;;
35330;SDS011;21441;52.190;20.910;2023-03-12T07:15:39;6.38;;;4.97;;
35330;SDS011;21441;52.190;20.910;2023-03-12T07:18:08;5.80;;;4.03;;
35330;SDS011;21441;52.190;20.910;2023-03-12T07:20:38;3.70;;;3.17;;
35330;SDS011;21441;52.190;20.910;2023-03-12T07:23:07;7.45;;;4.07;;
35330;SDS011;21441;52.190;20.910;2023-03-12T07:25:35;3.70;;;3.28;;
35330;SDS011;21441;52.190;20.910;2023-03-12T07:28:02;5.10;;;4.45;;
35330;SDS011;21441;52.190;20.910;2023-03-12T07:30:30;7.07;;;4.03;;
35330;SDS011;21441;52.190;20.910;2023-03-12T07:32:58;5.57;;;3.33;;
35330;SDS011;21441;52.190;20.910;2023-03-12T07:35:25;9.82;;;2.90;;
35330;SDS011;21441;52.190;20.910;2023-03-12T07:37:55;4.15;;;3.10;;
35330;SDS011;21441;52.190;20.910;2023-03-12T07:40:22;3.65;;;3.25;;
35330;SDS011;21441;52.190;20.910;2023-03-12T07:42:49;4.45;;;2.80;;
35330;SDS011;21441;52.190;20.910;2023-03-12T07:45:17;4.07;;;2.83;;
35330;SDS011;21441;52.190;20.910;2023-03-12T07:47:45;3.67;;;2.42;;
35330;SDS011;21441;52.190;20.910;2023-03-12T07:50:12;5.75;;;2.80;;
35330;SDS011;21441;52.190;20.910;2023-03-12T07:52:44;7.85;;;2.78;;
35330;SDS011;21441;52.190;20.910;2023-03-12T07:55:13;6.93;;;3.00;;
35330;SDS011;21441;52.190;20.910;2023-03-12T07:57:41;6.85;;;3.65;;
35330;SDS011;21441;52.190;20.910;2023-03-12T08:00:08;3.30;;;2.60;;
35330;SDS011;21441;52.190;20.910;2023-03-12T08:02:36;7.53;;;2.70;;
35330;SDS011;21441;52.190;20.910;2023-03-12T08:05:04;5.35;;;2.80;;
35330;SDS011;21441;52.190;20.910;2023-03-12T08:07:32;2.85;;;2.40;;
35330;SDS011;21441;52.190;20.910;2023-03-12T08:10:00;5.45;;;2.45;;
35330;SDS011;21441;52.190;20.910;2023-03-12T08:12:29;2.30;;;1.85;;
35330;SDS011;21441;52.190;20.910;2023-03-12T08:14:56;4.07;;;2.60;;
35330;SDS011;21441;52.190;20.910;2023-03-12T08:17:24;2.72;;;1.70;;
35330;SDS011;21441;52.190;20.910;2023-03-12T08:19:51;4.03;;;1.92;;
35330;SDS011;21441;52.190;20.910;2023-03-12T08:22:18;6.25;;;3.35;;
35330;SDS011;21441;52.190;20.910;2023-03-12T08:24:46;3.85;;;2.13;;
35330;SDS011;21441;52.190;20.910;2023-03-12T08:27:13;3.78;;;2.17;;
35330;SDS011;21441;52.190;20.910;2023-03-12T08:29:41;7.10;;;2.55;;
35330;SDS011;21441;52.190;20.910;2023-03-12T08:32:09;4.78;;;2.65;;
35330;SDS011;21441;52.190;20.910;2023-03-12T08:34:36;2.58;;;1.85;;
35330;SDS011;21441;52.190;20.910;2023-03-12T08:37:13;3.05;;;2.72;;
35330;SDS011;21441;52.190;20.910;2023-03-12T08:39:47;4.45;;;2.25;;
35330;SDS011;21441;52.190;20.910;2023-03-12T08:42:15;3.53;;;2.63;;
35330;SDS011;21441;52.190;20.910;2023-03-12T08:44:46;6.55;;;3.10;;
35330;SDS011;21441;52.190;20.910;2023-03-12T08:47:15;7.63;;;3.25;;
35330;SDS011;21441;52.190;20.910;2023-03-12T08:49:42;3.65;;;2.03;;
35330;SDS011;21441;52.190;20.910;2023-03-12T08:52:10;2.55;;;2.13;;
35330;SDS011;21441;52.190;20.910;2023-03-12T08:54:37;5.32;;;2.28;;
35330;SDS011;21441;52.190;20.910;2023-03-12T08:57:05;4.45;;;3.00;;
35330;SDS011;21441;52.190;20.910;2023-03-12T08:59:32;4.82;;;2.35;;
35330;SDS011;21441;52.190;20.910;2023-03-12T09:02:01;2.58;;;1.70;;
35330;SDS011;21441;52.190;20.910;2023-03-12T09:04:29;1.92;;;1.63;;
35330;SDS011;21441;52.190;20.910;2023-03-12T09:06:56;1.73;;;1.20;;
35330;SDS011;21441;52.190;20.910;2023-03-12T09:09:24;3.47;;;1.77;;
35330;SDS011;21441;52.190;20.910;2023-03-12T09:11:51;1.88;;;0.98;;
35330;SDS011;21441;52.190;20.910;2023-03-12T09:14:18;2.50;;;2.28;;
35330;SDS011;21441;52.190;20.910;2023-03-12T09:16:46;2.70;;;1.30;;
35330;SDS011;21441;52.190;20.910;2023-03-12T09:19:15;1.75;;;1.10;;
35330;SDS011;21441;52.190;20.910;2023-03-12T09:21:42;1.52;;;1.30;;
35330;SDS011;21441;52.190;20.910;2023-03-12T09:24:10;4.72;;;1.60;;
35330;SDS011;21441;52.190;20.910;2023-03-12T09:26:37;4.93;;;1.25;;
35330;SDS011;21441;52.190;20.910;2023-03-12T09:29:05;2.58;;;1.60;;
35330;SDS011;21441;52.190;20.910;2023-03-12T09:31:32;3.97;;;1.10;;
35330;SDS011;21441;52.190;20.910;2023-03-12T09:34:00;4.65;;;1.38;;
35330;SDS011;21441;52.190;20.910;2023-03-12T09:36:29;1.08;;;0.98;;
35330;SDS011;21441;52.190;20.910;2023-03-12T09:38:57;2.88;;;1.48;;
35330;SDS011;21441;52.190;20.910;2023-03-12T09:41:25;3.08;;;1.30;;
35330;SDS011;21441;52.190;20.910;2023-03-12T09:43:55;3.75;;;1.75;;
35330;SDS011;21441;52.190;20.910;2023-03-12T09:46:27;2.47;;;1.45;;
35330;SDS011;21441;52.190;20.910;2023-03-12T09:48:56;2.83;;;1.15;;
35330;SDS011;21441;52.190;20.910;2023-03-12T09:51:30;2.63;;;1.13;;
35330;SDS011;21441;52.190;20.910;2023-03-12T09:54:01;3.03;;;1.65;;
35330;SDS011;21441;52.190;20.910;2023-03-12T09:56:32;2.65;;;1.80;;
35330;SDS011;21441;52.190;20.910;2023-03-12T09:59:00;3.80;;;1.95;;
35330;SDS011;21441;52.190;20.910;2023-03-12T10:01:31;3.50;;;2.00;;
35330;SDS011;21441;52.190;20.910;2023-03-12T10:04:06;4.95;;;2.15;;
35330;SDS011;21441;52.190;20.910;2023-03-12T10:06:44;8.40;;;2.53;;
35330;SDS011;21441;52.190;20.910;2023-03-12T10:09:28;2.85;;;1.85;;
35330;SDS011;21441;52.190;20.910;2023-03-12T10:12:06;2.80;;;1.25;;
35330;SDS011;21441;52.190;20.910;2023-03-12T10:14:47;3.60;;;1.30;;
35330;SDS011;21441;52.190;20.910;2023-03-12T10:17:34;2.53;;;1.20;;
35330;SDS011;21441;52.190;20.910;2023-03-12T10:20:19;4.22;;;1.77;;
35330;SDS011;21441;52.190;20.910;2023-03-12T10:22:57;5.35;;;1.40;;
35330;SDS011;21441;52.190;20.910;2023-03-12T10:25:30;3.47;;;1.55;;
35330;SDS011;21441;52.190;20.910;2023-03-12T10:28:09;3.47;;;1.65;;
35330;SDS011;21441;52.190;20.910;2023-03-12T10:30:40;3.88;;;1.77;;
35330;SDS011;21441;52.190;20.910;2023-03-12T10:33:14;2.85;;;1.83;;
35330;SDS011;21441;52.190;20.910;2023-03-12T10:35:44;4.47;;;1.47;;
35330;SDS011;21441;52.190;20.910;2023-03-12T10:38:13;5.15;;;1.70;;
35330;SDS011;21441;52.190;20.910;2023-03-12T10:40:43;2.78;;;0.95;;
35330;SDS011;21441;52.190;20.910;2023-03-12T10:43:10;3.92;;;1.98;;
35330;SDS011;21441;52.190;20.910;2023-03-12T10:45:38;2.78;;;2.08;;
35330;SDS011;21441;52.190;20.910;2023-03-12T10:48:17;2.22;;;0.90;;
35330;SDS011;21441;52.190;20.910;2023-03-12T10:50:58;7.10;;;1.77;;
35330;SDS011;21441;52.190;20.910;2023-03-12T10:53:29;8.05;;;1.02;;
35330;SDS011;21441;52.190;20.910;2023-03-12T10:56:03;5.93;;;1.70;;
35330;SDS011;21441;52.190;20.910;2023-03-12T10:58:34;1.30;;;0.93;;
35330;SDS011;21441;52.190;20.910;2023-03-12T11:01:03;2.28;;;1.88;;
35330;SDS011;21441;52.190;20.910;2023-03-12T11:03:32;3.38;;;1.13;;
35330;SDS011;21441;52.190;20.910;2023-03-12T11:06:00;5.82;;;1.83;;
35330;SDS011;21441;52.190;20.910;2023-03-12T11:09:00;1.25;;;0.93;;
35330;SDS011;21441;52.190;20.910;2023-03-12T11:11:31;4.05;;;1.30;;
35330;SDS011;21441;52.190;20.910;2023-03-12T11:14:04;2.38;;;1.25;;
35330;SDS011;21441;52.190;20.910;2023-03-12T11:16:34;1.50;;;1.25;;
35330;SDS011;21441;52.190;20.910;2023-03-12T11:19:02;5.15;;;0.93;;
35330;SDS011;21441;52.190;20.910;2023-03-12T11:21:31;3.80;;;1.30;;
35330;SDS011;21441;52.190;20.910;2023-03-12T11:24:07;2.03;;;1.50;;
35330;SDS011;21441;52.190;20.910;2023-03-12T11:26:38;1.73;;;1.10;;
35330;SDS011;21441;52.190;20.910;2023-03-12T11:29:16;6.18;;;2.80;;
35330;SDS011;21441;52.190;20.910;2023-03-12T11:31:53;6.90;;;2.50;;
35330;SDS011;21441;52.190;20.910;2023-03-12T11:34:25;4.65;;;1.60;;
35330;SDS011;21441;52.190;20.910;2023-03-12T11:36:57;3.05;;;1.25;;
35330;SDS011;21441;52.190;20.910;2023-03-12T11:39:35;3.63;;;1.77;;
35330;SDS011;21441;52.190;20.910;2023-03-12T11:42:17;2.17;;;1.38;;
35330;SDS011;21441;52.190;20.910;2023-03-12T11:44:55;3.35;;;1.10;;
35330;SDS011;21441;52.190;20.910;2023-03-12T11:47:35;4.00;;;1.20;;
35330;SDS011;21441;52.190;20.910;2023-03-12T11:50:20;3.72;;;1.40;;
35330;SDS011;21441;52.190;20.910;2023-03-12T11:52:59;2.22;;;1.42;;
35330;SDS011;21441;52.190;20.910;2023-03-12T11:55:48;3.35;;;1.83;;
35330;SDS011;21441;52.190;20.910;2023-03-12T11:58:28;4.90;;;1.88;;
35330;SDS011;21441;52.190;20.910;2023-03-12T12:01:02;5.80;;;1.48;;
35330;SDS011;21441;52.190;20.910;2023-03-12T12:06:38;3.47;;;1.63;;
35330;SDS011;21441;52.190;20.910;2023-03-12T12:09:23;3.63;;;1.30;;
35330;SDS011;21441;52.190;20.910;2023-03-12T12:12:13;3.58;;;1.40;;
35330;SDS011;21441;52.190;20.910;2023-03-12T12:14:56;1.90;;;1.40;;
35330;SDS011;21441;52.190;20.910;2023-03-12T12:17:36;4.10;;;1.25;;
35330;SDS011;21441;52.190;20.910;2023-03-12T12:20:23;4.53;;;1.90;;
35330;SDS011;21441;52.190;20.910;2023-03-12T12:23:00;3.85;;;1.80;;
35330;SDS011;21441;52.190;20.910;2023-03-12T12:25:59;2.25;;;1.20;;
35330;SDS011;21441;52.190;20.910;2023-03-12T12:31:38;4.45;;;1.65;;
35330;SDS011;21441;52.190;20.910;2023-03-12T12:37:17;3.65;;;1.73;;
35330;SDS011;21441;52.190;20.910;2023-03-12T12:39:51;2.75;;;1.40;;
35330;SDS011;21441;52.190;20.910;2023-03-12T12:42:25;5.32;;;1.70;;
35330;SDS011;21441;52.190;20.910;2023-03-12T12:44:57;1.52;;;1.17;;
35330;SDS011;21441;52.190;20.910;2023-03-12T12:50:00;3.00;;;1.30;;
35330;SDS011;21441;52.190;20.910;2023-03-12T12:52:29;5.15;;;1.70;;
35330;SDS011;21441;52.190;20.910;2023-03-12T12:54:57;4.63;;;1.55;;
35330;SDS011;21441;52.190;20.910;2023-03-12T12:57:34;2.80;;;1.70;;
35330;SDS011;21441;52.190;20.910;2023-03-12T13:00:12;3.60;;;1.10;;
35330;SDS011;21441;52.190;20.910;2023-03-12T13:02:50;1.77;;;0.90;;
35330;SDS011;21441;52.190;20.910;2023-03-12T13:05:20;1.85;;;1.05;;
35330;SDS011;21441;52.190;20.910;2023-03-12T13:07:51;4.70;;;1.88;;
35330;SDS011;21441;52.190;20.910;2023-03-12T13:10:38;1.27;;;1.02;;
35330;SDS011;21441;52.190;20.910;2023-03-12T13:13:09;3.50;;;1.60;;
35330;SDS011;21441;52.190;20.910;2023-03-12T13:15:39;3.05;;;1.20;;
35330;SDS011;21441;52.190;20.910;2023-03-12T13:18:17;2.78;;;1.08;;
35330;SDS011;21441;52.190;20.910;2023-03-12T13:20:59;3.22;;;1.42;;
35330;SDS011;21441;52.190;20.910;2023-03-12T13:23:46;1.58;;;1.02;;
35330;SDS011;21441;52.190;20.910;2023-03-12T13:26:25;2.28;;;1.45;;
35330;SDS011;21441;52.190;20.910;2023-03-12T13:29:11;1.63;;;1.02;;
35330;SDS011;21441;52.190;20.910;2023-03-12T13:31:44;4.45;;;1.40;;
35330;SDS011;21441;52.190;20.910;2023-03-12T13:34:30;3.08;;;1.58;;
35330;SDS011;21441;52.190;20.910;2023-03-12T13:37:20;1.90;;;1.00;;
35330;SDS011;21441;52.190;20.910;2023-03-12T13:39:58;3.95;;;1.42;;
35330;SDS011;21441;52.190;20.910;2023-03-12T13:42:36;6.25;;;1.55;;
35330;SDS011;21441;52.190;20.910;2023-03-12T13:47:54;2.88;;;1.30;;
35330;SDS011;21441;52.190;20.910;2023-03-12T13:50:27;1.13;;;0.93;;
35330;SDS011;21441;52.190;20.910;2023-03-12T13:55:32;4.53;;;1.67;;
35330;SDS011;21441;52.190;20.910;2023-03-12T13:58:04;3.25;;;1.85;;
35330;SDS011;21441;52.190;20.910;2023-03-12T14:00:37;5.18;;;2.17;;
35330;SDS011;21441;52.190;20.910;2023-03-12T14:03:10;2.65;;;1.45;;
35330;SDS011;21441;52.190;20.910;2023-03-12T14:05:44;9.48;;;2.10;;
35330;SDS011;21441;52.190;20.910;2023-03-12T14:08:28;1.25;;;0.75;;
35330;SDS011;21441;52.190;20.910;2023-03-12T14:11:28;4.30;;;1.83;;
35330;SDS011;21441;52.190;20.910;2023-03-12T14:14:17;2.78;;;1.10;;
35330;SDS011;21441;52.190;20.910;2023-03-12T14:16:58;2.47;;;1.35;;
35330;SDS011;21441;52.190;20.910;2023-03-12T14:19:28;4.47;;;1.60;;
35330;SDS011;21441;52.190;20.910;2023-03-12T14:22:00;1.83;;;1.42;;
35330;SDS011;21441;52.190;20.910;2023-03-12T14:24:31;3.83;;;1.45;;
35330;SDS011;21441;52.190;20.910;2023-03-12T14:27:00;3.80;;;1.60;;
35330;SDS011;21441;52.190;20.910;2023-03-12T14:29:30;3.17;;;0.95;;
35330;SDS011;21441;52.190;20.910;2023-03-12T14:32:03;3.22;;;1.73;;
35330;SDS011;21441;52.190;20.910;2023-03-12T14:34:37;1.63;;;1.42;;
35330;SDS011;21441;52.190;20.910;2023-03-12T14:37:11;3.17;;;1.40;;
35330;SDS011;21441;52.190;20.910;2023-03-12T14:39:43;7.63;;;1.55;;
35330;SDS011;21441;52.190;20.910;2023-03-12T14:42:17;2.65;;;1.65;;
35330;SDS011;21441;52.190;20.910;2023-03-12T14:44:53;6.00;;;1.80;;
35330;SDS011;21441;52.190;20.910;2023-03-12T14:47:24;2.63;;;1.60;;
35330;SDS011;21441;52.190;20.910;2023-03-12T14:49:53;2.70;;;1.70;;
35330;SDS011;21441;52.190;20.910;2023-03-12T14:52:24;4.50;;;2.03;;
35330;SDS011;21441;52.190;20.910;2023-03-12T14:54:55;3.40;;;2.30;;
35330;SDS011;21441;52.190;20.910;2023-03-12T14:57:24;5.80;;;1.92;;
35330;SDS011;21441;52.190;20.910;2023-03-12T14:59:52;4.85;;;2.10;;
35330;SDS011;21441;52.190;20.910;2023-03-12T15:02:21;1.85;;;1.35;;
35330;SDS011;21441;52.190;20.910;2023-03-12T15:04:50;3.42;;;2.05;;
35330;SDS011;21441;52.190;20.910;2023-03-12T15:07:22;3.95;;;2.38;;
35330;SDS011;21441;52.190;20.910;2023-03-12T15:09:53;3.35;;;1.75;;
35330;SDS011;21441;52.190;20.910;2023-03-12T15:12:21;5.15;;;1.85;;
35330;SDS011;21441;52.190;20.910;2023-03-12T15:14:52;5.18;;;1.70;;
35330;SDS011;21441;52.190;20.910;2023-03-12T15:17:23;6.30;;;2.00;;
35330;SDS011;21441;52.190;20.910;2023-03-12T15:19:56;4.63;;;1.50;;